Time;durP1;ratioP1;P1;durP2;ratioP2;P2;SDS_P1;SDS_P2;PMS_P1;PMS_P2;Temp;Humidity;BMP_temperature;BMP_pressure;BME280_temperature;BME280_humidity;BME280_pressure;Samples;Min_cycle;Max_cycle;Signal;HPM_P1;HPM_P2
2021/05/07 00:05:43;;;;;;;3.15;1.60;;;;;;;14.41;97.56;98108.87;4339282;81;28630;-84
2021/05/07 00:11:45;;;;;;;3.77;2.00;;;;;;;14.40;90.18;98085.63;4163342;84;28619;-84
2021/05/07 00:17:48;;;;;;;2.85;1.37;;;;;;;14.70;77.89;98087.08;4210319;84;28666;-83
2021/05/07 00:23:52;;;;;;;5.20;1.90;;;;;;;14.98;82.82;98093.64;4255518;83;28604;-83
2021/05/07 00:29:54;;;;;;;3.77;1.77;;;;;;;14.80;85.78;98082.97;4259125;83;28619;-83
2021/05/07 00:35:56;;;;;;;2.72;1.67;;;;;;;14.60;90.98;98074.41;4250510;83;28629;-83
2021/05/07 00:42:05;;;;;;;4.30;2.00;;;;;;;14.21;100.00;98056.55;4264923;83;28685;-83
2021/05/07 00:48:16;;;;;;;4.65;1.95;;;;;;;14.15;100.00;98056.31;4218927;83;28595;-83
2021/05/07 00:54:18;;;;;;;3.83;1.70;;;;;;;14.19;100.00;98052.51;4209662;83;28608;-83
2021/05/07 01:00:23;;;;;;;3.05;1.75;;;;;;;14.73;88.23;98036.48;4179131;84;28549;-83
2021/05/07 01:06:27;;;;;;;4.25;1.70;;;;;;;14.39;99.46;98040.75;4172309;84;28577;-83
2021/05/07 01:12:29;;;;;;;2.20;1.52;;;;;;;14.36;100.00;98041.31;4204798;84;28581;-83
2021/05/07 01:18:32;;;;;;;3.77;1.50;;;;;;;14.63;89.26;98022.45;4198987;83;28635;-83
2021/05/07 01:24:34;;;;;;;3.02;1.55;;;;;;;14.71;89.30;98015.64;4176688;84;28638;-84
2021/05/07 01:30:41;;;;;;;2.75;1.27;;;;;;;14.59;90.36;98012.77;4173462;84;28601;-83
2021/05/07 01:36:45;;;;;;;3.55;1.22;;;;;;;14.71;91.24;97993.44;4241448;83;28577;-84
2021/05/07 01:42:50;;;;;;;3.90;1.50;;;;;;;14.49;90.72;97985.23;4192768;84;28641;-83
2021/05/07 01:48:53;;;;;;;4.22;1.10;;;;;;;14.47;82.00;97974.43;4192711;84;28561;-84
2021/05/07 01:54:56;;;;;;;2.60;1.20;;;;;;;14.24;90.24;97975.42;4167324;84;28617;-84
2021/05/07 02:00:58;;;;;;;2.95;1.20;;;;;;;14.62;83.13;97970.79;4194328;84;28600;-83
2021/05/07 02:07:01;;;;;;;3.05;1.10;;;;;;;14.74;80.54;97956.39;4204768;84;28644;-83
2021/05/07 02:13:07;;;;;;;2.00;1.20;;;;;;;14.67;81.54;97947.77;4186801;84;28643;-83
2021/05/07 02:19:10;;;;;;;2.02;1.17;;;;;;;14.85;77.84;97927.33;4183981;84;28601;-83
2021/05/07 02:25:15;;;;;;;1.77;1.00;;;;;;;14.43;81.48;97928.78;4217996;83;28648;-83
2021/05/07 02:31:18;;;;;;;2.08;1.00;;;;;;;14.61;79.85;97929.43;4193790;83;28587;-84
2021/05/07 02:37:20;;;;;;;2.10;1.20;;;;;;;14.68;78.74;97933.68;4181381;84;28628;-83
2021/05/07 02:43:22;;;;;;;1.92;1.00;;;;;;;14.61;78.79;97923.20;4185364;84;28660;-85
2021/05/07 02:49:24;;;;;;;1.30;0.68;;;;;;;14.38;80.77;97915.31;4212877;84;28681;-84
2021/05/07 02:55:26;;;;;;;0.95;0.53;;;;;;;14.34;80.50;97899.64;4244983;83;28652;-84
2021/05/07 03:01:28;;;;;;;1.27;0.70;;;;;;;14.33;81.14;97890.48;4224870;84;28667;-84
2021/05/07 03:07:30;;;;;;;1.17;0.62;;;;;;;14.43;81.31;97891.73;4243567;83;28636;-84
2021/05/07 03:13:33;;;;;;;1.92;0.98;;;;;;;14.52;78.53;97882.98;4272553;83;28598;-84
2021/05/07 03:19:35;;;;;;;1.85;0.85;;;;;;;14.27;86.75;97876.73;4227271;83;28599;-84
2021/05/07 03:25:37;;;;;;;1.65;0.80;;;;;;;14.32;87.70;97874.00;4245015;83;28597;-83
2021/05/07 03:31:39;;;;;;;1.50;0.57;;;;;;;14.13;94.68;97884.69;4222430;84;28662;-84
2021/05/07 03:37:41;;;;;;;2.02;0.60;;;;;;;14.48;82.82;97874.09;4223505;84;28612;-84
2021/05/07 03:43:43;;;;;;;1.00;0.65;;;;;;;14.44;83.47;97879.01;4196087;84;29195;-84
2021/05/07 03:49:45;;;;;;;2.08;0.60;;;;;;;14.43;80.94;97870.11;4205783;83;28623;-83
2021/05/07 03:55:47;;;;;;;0.90;0.62;;;;;;;14.36;82.38;97869.63;4258544;82;28580;-84
2021/05/07 04:01:50;;;;;;;0.75;0.53;;;;;;;14.26;81.26;97865.10;4300657;81;28569;-85
2021/05/07 04:14:00;;;;;;;1.82;0.60;;;;;;;14.78;78.39;97865.44;4190127;84;28656;-84
2021/05/07 04:20:04;;;;;;;0.95;0.60;;;;;;;14.62;85.33;97864.77;4173043;84;28557;-83
2021/05/07 04:26:06;;;;;;;1.22;0.70;;;;;;;15.17;78.43;97878.51;4205391;84;28601;-83
2021/05/07 04:32:08;;;;;;;2.80;0.80;;;;;;;15.07;87.88;97890.81;4312570;81;28662;-84
2021/05/07 04:38:10;;;;;;;1.30;0.80;;;;;;;14.98;86.21;97889.30;4354608;81;28632;-83
2021/05/07 04:44:12;;;;;;;2.62;0.93;;;;;;;15.22;75.06;97880.91;4348205;81;28571;-83
2021/05/07 04:50:15;;;;;;;1.47;0.88;;;;;;;15.52;71.11;97881.61;4180191;84;29608;-83
2021/05/07 04:56:16;;;;;;;2.00;0.88;;;;;;;15.90;67.92;97880.25;4191288;84;28676;-81
2021/05/07 05:02:18;;;;;;;3.90;1.50;;;;;;;16.03;67.27;97883.56;4202957;84;28621;-85
2021/05/07 05:08:23;;;;;;;2.40;1.20;;;;;;;16.04;67.07;97888.45;4195929;84;28571;-82
2021/05/07 05:14:25;;;;;;;2.12;1.40;;;;;;;16.08;67.23;97894.88;4238837;84;28621;-81
2021/05/07 05:20:27;;;;;;;2.80;1.35;;;;;;;15.99;68.86;97903.45;4221358;84;28598;-83
2021/05/07 05:26:29;;;;;;;2.87;1.22;;;;;;;16.27;67.40;97900.28;4191063;84;28668;-84
2021/05/07 05:32:32;;;;;;;3.47;1.15;;;;;;;16.57;67.88;97888.66;4204602;84;28609;-86
2021/05/07 05:38:36;;;;;;;3.37;1.30;;;;;;;17.00;66.39;97882.16;4189785;84;28598;-85
2021/05/07 05:44:38;;;;;;;2.65;1.55;;;;;;;17.51;62.98;97869.98;4210187;84;28648;-83
2021/05/07 05:50:43;;;;;;;2.27;1.37;;;;;;;17.60;61.33;97875.52;4181155;84;28583;-84
2021/05/07 05:56:46;;;;;;;4.15;1.80;;;;;;;18.12;59.97;97881.14;4210590;84;28586;-85
2021/05/07 06:02:48;;;;;;;4.25;1.80;;;;;;;18.39;56.66;97885.63;4231155;83;28608;-84
2021/05/07 06:08:50;;;;;;;4.40;1.80;;;;;;;18.75;55.93;97898.05;4256948;82;28600;-85
2021/05/07 06:14:52;;;;;;;4.33;1.30;;;;;;;18.59;54.82;97901.19;4354424;81;28646;-84
2021/05/07 06:20:55;;;;;;;3.15;1.40;;;;;;;18.38;52.47;97901.72;4355071;81;28654;-83
2021/05/07 06:26:58;;;;;;;2.25;0.90;;;;;;;18.49;52.61;97894.08;4339819;81;28643;-85
2021/05/07 06:33:01;;;;;;;2.92;1.10;;;;;;;18.28;52.09;97912.85;4367925;81;28576;-85
2021/05/07 06:39:04;;;;;;;3.52;1.15;;;;;;;18.27;51.48;97908.50;4311786;81;28574;-85
2021/05/07 06:45:11;;;;;;;3.30;0.75;;;;;;;18.31;52.54;97898.63;4332992;81;28595;-85
2021/05/07 06:51:13;;;;;;;3.80;0.90;;;;;;;18.66;50.94;97896.08;4340989;81;28600;-83
2021/05/07 06:57:14;;;;;;;3.22;1.17;;;;;;;19.12;47.26;97888.36;4376854;81;28579;-84
2021/05/07 07:03:17;;;;;;;1.27;0.65;;;;;;;19.50;48.00;97894.62;4336991;81;28577;-84
2021/05/07 07:09:19;;;;;;;4.00;0.75;;;;;;;19.46;45.16;97898.55;4353734;81;28980;-84
2021/05/07 07:15:23;;;;;;;1.27;0.50;;;;;;;20.00;45.38;97898.06;4214514;84;28586;-85
2021/05/07 07:21:25;;;;;;;2.65;0.65;;;;;;;20.13;45.78;97894.35;4209300;85;28649;-85
2021/05/07 07:27:27;;;;;;;1.52;0.80;;;;;;;19.79;44.98;97882.31;4200062;84;28609;-84
2021/05/07 07:33:30;;;;;;;2.08;0.90;;;;;;;18.97;46.79;97892.29;4180784;84;28585;-86
2021/05/07 07:39:32;;;;;;;1.32;0.60;;;;;;;19.61;47.47;97874.11;4168983;84;28595;-84
2021/05/07 07:45:34;;;;;;;2.55;1.02;;;;;;;19.05;46.62;97882.02;4221666;83;28594;-85
2021/05/07 07:51:36;;;;;;;1.32;0.72;;;;;;;19.96;44.78;97881.53;4231702;83;28595;-84
2021/05/07 07:57:38;;;;;;;1.77;0.72;;;;;;;19.55;47.26;97886.86;4220057;82;28587;-86
2021/05/07 08:03:40;;;;;;;1.85;0.70;;;;;;;19.50;45.61;97887.23;4160204;84;28702;-85
2021/05/07 08:09:42;;;;;;;1.10;0.65;;;;;;;19.42;44.93;97911.22;4172360;84;28621;-85
2021/05/07 08:15:44;;;;;;;2.42;0.78;;;;;;;19.29;45.09;97928.47;4179235;84;28627;-84
2021/05/07 08:21:46;;;;;;;1.57;0.60;;;;;;;19.83;44.70;97929.63;4170835;84;28595;-85
2021/05/07 08:27:49;;;;;;;1.35;0.50;;;;;;;19.90;45.18;97924.50;4211346;84;28616;-85
2021/05/07 08:33:53;;;;;;;0.65;0.60;;;;;;;19.31;46.14;97945.30;4194729;84;28641;-84
2021/05/07 08:39:56;;;;;;;1.62;0.60;;;;;;;19.44;45.37;97940.31;4177304;84;28633;-84
2021/05/07 08:46:06;;;;;;;1.30;0.60;;;;;;;19.80;45.71;97930.27;4194328;84;28656;-83
2021/05/07 08:52:09;;;;;;;1.10;0.50;;;;;;;19.84;45.24;97920.89;4219024;83;28663;-87
2021/05/07 08:58:12;;;;;;;1.02;0.55;;;;;;;19.27;44.13;97922.00;4236300;82;28616;-85
2021/05/07 09:04:21;;;;;;;0.90;0.47;;;;;;;20.19;42.19;97927.16;4275316;82;28573;-84
2021/05/07 09:10:42;;;;;;;1.47;0.47;;;;;;;19.61;43.41;97948.27;4279783;82;28604;-85
2021/05/07 09:17:02;;;;;;;1.70;0.70;;;;;;;19.65;43.40;97944.59;4294554;82;28584;-84
2021/05/07 09:23:11;;;;;;;1.92;0.80;;;;;;;20.58;42.47;97964.68;4280994;82;28600;-85
2021/05/07 09:29:24;;;;;;;0.80;0.50;;;;;;;19.82;44.19;97973.56;4279093;82;28625;-85
2021/05/07 09:35:30;;;;;;;1.37;0.40;;;;;;;19.57;43.71;97965.81;4255170;82;28574;-83
2021/05/07 09:41:49;;;;;;;1.45;0.50;;;;;;;20.02;43.60;97960.70;4264957;82;28570;-85
2021/05/07 09:47:53;;;;;;;1.80;0.78;;;;;;;20.63;43.79;97972.72;4279752;82;28640;-84
2021/05/07 09:54:00;;;;;;;1.05;0.65;;;;;;;20.89;43.14;97975.42;4269922;82;28637;-85
2021/05/07 10:00:04;;;;;;;1.17;0.70;;;;;;;20.27;44.68;97987.52;4188462;84;28655;-85
2021/05/07 10:06:08;;;;;;;1.27;0.60;;;;;;;20.95;44.72;98006.09;4185009;84;28574;-85
2021/05/07 10:12:14;;;;;;;3.27;1.02;;;;;;;20.72;45.26;97991.80;4187779;84;28699;-82
2021/05/07 10:18:25;;;;;;;1.47;0.60;;;;;;;21.30;43.87;97976.48;4187054;84;28575;-82
2021/05/07 10:24:34;;;;;;;1.55;0.53;;;;;;;20.46;41.04;97985.26;4198863;84;28614;-85
2021/05/07 10:30:36;;;;;;;3.22;0.42;;;;;;;21.30;38.91;97981.95;4190875;84;28641;-85
2021/05/07 10:36:47;;;;;;;0.70;0.30;;;;;;;20.55;39.85;97988.55;4184296;83;28684;-83
2021/05/07 10:42:57;;;;;;;2.02;0.50;;;;;;;20.19;41.91;97971.39;4190715;84;28607;-85
2021/05/07 10:49:00;;;;;;;0.90;0.30;;;;;;;19.95;41.35;97967.22;4190906;84;28617;-84
2021/05/07 10:55:06;;;;;;;1.17;0.57;;;;;;;19.91;42.48;98003.02;4189595;83;28572;-85
2021/05/07 11:01:28;;;;;;;1.10;0.50;;;;;;;19.54;40.92;98010.65;4189299;84;28666;-85
2021/05/07 11:07:33;;;;;;;1.95;0.85;;;;;;;19.90;40.34;98020.52;4197721;84;28637;-88
2021/05/07 11:13:38;;;;;;;2.00;0.72;;;;;;;19.96;40.96;98005.64;4178450;84;28635;-88
2021/05/07 11:19:43;;;;;;;2.20;0.53;;;;;;;20.61;43.26;98037.75;4205795;84;44806;-88
2021/05/07 11:25:46;;;;;;;0.53;0.40;;;;;;;20.38;41.47;98043.38;4219333;84;28577;-87
2021/05/07 11:31:48;;;;;;;1.87;0.50;;;;;;;20.18;41.38;98023.00;4212742;84;28557;-88
2021/05/07 11:37:54;;;;;;;1.35;0.70;;;;;;;19.79;41.34;98017.30;4179760;84;28608;-88
2021/05/07 11:44:02;;;;;;;0.50;0.23;;;;;;;19.34;40.31;98015.55;4205681;84;28589;-87
2021/05/07 11:50:06;;;;;;;1.20;0.50;;;;;;;19.43;40.89;97995.13;4189128;84;28585;-87
2021/05/07 11:56:21;;;;;;;1.35;0.70;;;;;;;19.46;40.67;97996.67;4202286;84;28673;-87
2021/05/07 12:02:27;;;;;;;1.17;0.65;;;;;;;18.76;41.51;98018.09;4307283;82;28568;-89
2021/05/07 12:08:34;;;;;;;1.82;1.02;;;;;;;18.84;40.78;98021.42;4306286;82;28661;-88
2021/05/07 12:14:38;;;;;;;2.00;1.30;;;;;;;19.12;44.14;98014.49;4307875;82;28577;-89
2021/05/07 12:20:44;;;;;;;1.65;1.17;;;;;;;18.23;49.34;98043.00;4313027;82;28587;-89
2021/05/07 12:26:49;;;;;;;2.05;1.10;;;;;;;18.32;50.06;98044.97;4286031;82;28577;-87
2021/05/07 12:33:09;;;;;;;2.20;1.20;;;;;;;18.42;47.53;98048.81;4302842;81;28598;-87
2021/05/07 12:39:14;;;;;;;1.75;1.10;;;;;;;18.25;48.00;98060.35;4278486;83;28633;-87
2021/05/07 12:45:16;;;;;;;1.62;1.20;;;;;;;18.48;47.23;98065.83;4296115;82;28665;-88
2021/05/07 12:51:21;;;;;;;1.72;1.40;;;;;;;18.39;45.78;98061.69;4321312;80;28578;-88
2021/05/07 12:57:23;;;;;;;1.87;1.22;;;;;;;18.47;45.65;98070.48;4333492;80;28640;-87
2021/05/07 13:03:28;;;;;;;1.95;1.02;;;;;;;18.95;43.46;98060.90;4334727;81;28625;-88
2021/05/07 13:09:30;;;;;;;2.47;1.30;;;;;;;19.60;40.39;98057.89;4327152;81;28571;-88
2021/05/07 13:15:34;;;;;;;1.87;1.10;;;;;;;19.35;40.85;98056.67;4349143;81;28582;-88
2021/05/07 13:21:36;;;;;;;1.67;1.10;;;;;;;19.65;39.97;98051.50;4340052;81;28611;-88
2021/05/07 13:27:40;;;;;;;3.87;1.62;;;;;;;19.20;40.55;98053.78;4307634;81;28623;-88
2021/05/07 13:33:43;;;;;;;2.87;1.30;;;;;;;19.48;39.63;98080.86;4306737;81;28594;-88
2021/05/07 13:39:45;;;;;;;1.52;1.00;;;;;;;20.18;38.89;98088.48;4311063;80;28597;-87
2021/05/07 13:45:50;;;;;;;2.15;1.40;;;;;;;20.59;37.57;98087.23;4320519;80;28576;-86
2021/05/07 13:51:53;;;;;;;2.20;1.50;;;;;;;20.51;37.60;98074.94;4307780;81;28551;-88
2021/05/07 13:57:55;;;;;;;3.00;1.40;;;;;;;19.36;39.38;98095.06;4371482;81;28593;-87
2021/05/07 14:03:58;;;;;;;1.60;1.45;;;;;;;19.61;39.87;98106.39;4350577;81;28573;-86
2021/05/07 14:10:06;;;;;;;2.58;1.62;;;;;;;19.35;39.72;98119.34;4318872;81;28540;-88
2021/05/07 14:16:08;;;;;;;2.62;1.70;;;;;;;18.85;41.30;98112.08;4339131;81;28595;-87
2021/05/07 14:22:11;;;;;;;2.75;1.67;;;;;;;17.23;47.17;98143.55;4341350;81;28593;-87
2021/05/07 14:28:14;;;;;;;3.08;1.80;;;;;;;18.39;44.95;98148.76;4342933;81;28606;-86
2021/05/07 14:34:16;;;;;;;5.15;1.87;;;;;;;17.14;50.65;98181.46;4322513;81;28588;-87
2021/05/07 14:40:18;;;;;;;4.80;1.80;;;;;;;16.88;49.41;98172.30;4332888;81;28640;-86
2021/05/07 14:46:20;;;;;;;3.12;1.40;;;;;;;17.88;45.40;98168.25;4319172;81;28601;-83
2021/05/07 14:52:23;;;;;;;2.22;1.70;;;;;;;17.96;42.44;98183.30;4318874;81;28588;-86
2021/05/07 14:58:25;;;;;;;2.25;1.70;;;;;;;18.16;42.04;98182.69;4313479;81;28569;-85
2021/05/07 15:04:27;;;;;;;2.27;1.40;;;;;;;18.45;41.23;98182.11;4320419;81;28657;-85
2021/05/07 15:10:29;;;;;;;3.37;1.67;;;;;;;18.97;40.28;98180.98;4160006;84;28580;-85
2021/05/07 15:16:31;;;;;;;3.52;1.80;;;;;;;18.42;40.93;98172.63;4165068;83;28692;-86
2021/05/07 15:22:33;;;;;;;3.33;1.70;;;;;;;18.78;41.30;98166.97;4206770;84;28570;-84
2021/05/07 15:28:35;;;;;;;2.98;1.87;;;;;;;18.44;41.62;98159.55;4214191;83;28599;-86
2021/05/07 15:34:38;;;;;;;4.33;2.00;;;;;;;18.10;42.30;98168.39;4211464;84;28593;-83
2021/05/07 15:40:40;;;;;;;4.20;1.77;;;;;;;18.72;41.59;98164.91;4167658;84;28656;-84
2021/05/07 15:52:57;;;;;;;2.10;1.30;;;;;;;17.94;43.83;98212.72;4428657;79;73882;-84
2021/05/07 15:58:59;;;;;;;5.25;1.50;;;;;;;17.05;46.31;98227.47;4329767;81;28578;-83
2021/05/07 16:05:04;;;;;;;2.35;0.90;;;;;;;16.31;49.76;98251.73;4354847;81;28569;-84
2021/05/07 16:11:06;;;;;;;4.72;1.20;;;;;;;16.07;50.49;98255.78;4351722;81;28586;-81
2021/05/07 16:17:08;;;;;;;1.67;0.98;;;;;;;16.67;48.09;98309.64;4314045;80;28587;-88
2021/05/07 16:23:12;;;;;;;2.10;1.50;;;;;;;15.44;57.27;98363.81;4328180;80;28592;-85
2021/05/07 16:29:16;;;;;;;2.60;1.80;;;;;;;14.00;77.45;98366.62;4269406;82;28657;-85
2021/05/07 16:35:21;;;;;;;3.92;2.17;;;;;;;14.02;84.10;98362.31;4291039;83;28654;-86
2021/05/07 16:41:26;;;;;;;3.65;2.12;;;;;;;14.20;86.57;98385.27;4306545;80;28667;-85
2021/05/07 16:47:29;;;;;;;3.37;2.25;;;;;;;14.01;87.37;98391.77;4342756;80;28576;-88
2021/05/07 16:53:31;;;;;;;3.33;2.42;;;;;;;13.87;80.32;98418.51;4338453;81;28586;-86
2021/05/07 16:59:33;;;;;;;3.22;2.33;;;;;;;13.69;86.69;98434.66;4346772;81;28567;-86
2021/05/07 17:05:38;;;;;;;3.80;2.33;;;;;;;13.48;96.98;98430.55;4351306;81;28593;-85
2021/05/07 17:11:40;;;;;;;4.78;2.55;;;;;;;14.46;78.12;98426.62;4322938;80;28579;-84
2021/05/07 17:17:44;;;;;;;4.00;2.27;;;;;;;15.18;72.92;98418.91;4312642;80;28587;-85
2021/05/07 17:23:46;;;;;;;2.95;2.25;;;;;;;15.28;76.68;98420.78;4329966;81;28620;-87
2021/05/07 17:29:51;;;;;;;4.60;2.47;;;;;;;15.32;73.17;98429.16;4333787;80;28564;-83
2021/05/07 17:35:54;;;;;;;4.67;2.50;;;;;;;15.31;74.25;98435.67;4346481;80;28666;-85
2021/05/07 17:41:57;;;;;;;6.40;3.12;;;;;;;15.26;73.12;98447.86;4342273;81;28637;-85
2021/05/07 17:47:59;;;;;;;4.17;2.83;;;;;;;15.09;74.44;98462.52;4327376;81;28610;-85
2021/05/07 17:54:03;;;;;;;4.70;2.90;;;;;;;14.67;74.15;98464.48;4342819;82;28637;-85
2021/05/07 18:00:10;;;;;;;6.55;3.70;;;;;;;14.46;71.60;98479.37;4294285;82;28580;-86
2021/05/07 18:06:13;;;;;;;5.97;3.45;;;;;;;14.68;71.79;98476.92;4339487;80;28660;-87
2021/05/07 18:12:17;;;;;;;7.15;3.92;;;;;;;14.62;74.34;98487.47;4327404;81;28577;-85
2021/05/07 18:18:20;;;;;;;6.28;4.00;;;;;;;14.48;74.27;98493.42;4329242;80;28669;-85
2021/05/07 18:24:23;;;;;;;7.55;5.00;;;;;;;14.34;74.45;98497.76;4315009;80;28576;-86
2021/05/07 18:30:25;;;;;;;7.78;4.25;;;;;;;14.36;73.50;98519.92;4330882;80;28581;-84
2021/05/07 18:36:30;;;;;;;7.62;4.62;;;;;;;14.38;71.85;98531.28;4315305;80;28618;-86
2021/05/07 18:42:34;;;;;;;8.53;4.53;;;;;;;14.56;71.21;98546.17;4311244;80;28705;-86
2021/05/07 18:48:38;;;;;;;10.65;6.28;;;;;;;14.58;71.91;98576.48;4308607;80;28640;-86
2021/05/07 18:54:43;;;;;;;9.18;5.47;;;;;;;14.35;75.53;98610.25;4323794;81;28591;-86
2021/05/07 19:00:45;;;;;;;10.55;5.62;;;;;;;14.08;80.19;98625.58;4310864;81;28597;-87
2021/05/07 19:06:47;;;;;;;7.53;4.42;;;;;;;13.59;78.73;98640.73;4349296;80;28573;-85
2021/05/07 19:12:51;;;;;;;6.83;3.90;;;;;;;13.61;69.17;98661.53;4202474;83;28619;-87
2021/05/07 19:18:53;;;;;;;6.47;3.50;;;;;;;13.20;67.86;98677.67;4228529;83;28576;-87
2021/05/07 19:24:55;;;;;;;7.72;3.22;;;;;;;12.86;66.50;98708.95;4213691;84;28600;-86
2021/05/07 19:30:58;;;;;;;5.08;2.67;;;;;;;12.73;66.06;98712.84;4193125;83;28573;-84
2021/05/07 19:37:01;;;;;;;5.53;2.22;;;;;;;12.99;60.81;98745.51;4189977;84;28569;-86
2021/05/07 19:43:03;;;;;;;5.15;2.40;;;;;;;12.36;58.20;98739.92;4209966;83;28726;-84
2021/05/07 19:49:06;;;;;;;4.55;2.35;;;;;;;12.26;59.78;98747.36;4184999;83;28605;-84
2021/05/07 19:55:10;;;;;;;5.08;2.30;;;;;;;12.38;59.33;98745.88;4175724;83;28591;-83
2021/05/07 20:01:14;;;;;;;4.90;2.40;;;;;;;12.38;59.17;98759.91;4177886;83;29133;-89
2021/05/07 20:07:17;;;;;;;4.17;2.27;;;;;;;12.50;56.99;98771.94;4180137;83;50635;-84
2021/05/07 20:13:20;;;;;;;4.15;2.27;;;;;;;11.95;56.17;98783.28;4199385;83;28655;-87
2021/05/07 20:19:22;;;;;;;5.53;2.22;;;;;;;11.63;54.81;98797.33;4191618;84;28657;-84
2021/05/07 20:25:24;;;;;;;4.75;2.02;;;;;;;11.63;52.79;98805.92;4203900;84;28644;-84
2021/05/07 20:31:26;;;;;;;3.27;2.02;;;;;;;11.21;52.81;98825.38;4202950;84;28597;-83
2021/05/07 20:37:28;;;;;;;4.58;2.35;;;;;;;10.64;55.95;98824.80;4196648;84;28595;-85
2021/05/07 20:43:30;;;;;;;4.72;2.37;;;;;;;11.09;55.04;98834.03;4186311;84;28574;-83
2021/05/07 20:49:36;;;;;;;5.20;2.80;;;;;;;10.62;57.25;98845.73;4219820;82;28613;-83
2021/05/07 20:55:38;;;;;;;5.92;2.05;;;;;;;10.65;57.54;98862.21;4273427;82;28632;-84
2021/05/07 21:01:40;;;;;;;4.83;2.40;;;;;;;10.52;58.46;98874.56;4263938;82;28604;-84
2021/05/07 21:07:42;;;;;;;4.45;2.72;;;;;;;10.76;58.41;98873.98;4258480;82;28988;-84
2021/05/07 21:13:44;;;;;;;5.50;2.50;;;;;;;10.18;62.23;98893.91;4307917;82;28632;-84
2021/05/07 21:19:46;;;;;;;4.85;2.60;;;;;;;10.22;62.16;98899.64;4287731;82;28644;-83
2021/05/07 21:25:49;;;;;;;4.33;1.85;;;;;;;10.65;60.42;98905.73;4277688;82;28574;-84
2021/05/07 21:31:51;;;;;;;4.53;2.15;;;;;;;10.82;58.91;98918.77;4285780;82;28606;-83
2021/05/07 21:37:54;;;;;;;4.50;1.90;;;;;;;10.86;58.36;98933.91;4278472;82;28616;-84
2021/05/07 21:43:56;;;;;;;3.70;1.95;;;;;;;10.85;58.66;98951.91;4264369;82;28608;-82
2021/05/07 21:50:02;;;;;;;3.85;2.10;;;;;;;10.63;58.76;98958.42;4245971;82;28673;-83
2021/05/07 21:56:04;;;;;;;5.00;2.33;;;;;;;10.51;59.52;98964.30;4194756;84;28608;-83
2021/05/07 22:02:06;;;;;;;5.47;2.45;;;;;;;10.48;60.55;98983.58;4365903;81;28609;-83
2021/05/07 22:08:09;;;;;;;6.45;2.60;;;;;;;10.25;62.76;98991.33;4387111;81;28646;-82
2021/05/07 22:14:11;;;;;;;5.50;3.22;;;;;;;10.14;64.04;99001.01;4334558;80;28691;-82
2021/05/07 22:20:13;;;;;;;4.67;2.62;;;;;;;10.25;63.24;99003.96;4340052;81;28568;-83
2021/05/07 22:26:16;;;;;;;5.85;2.95;;;;;;;9.90;65.24;99008.16;4364832;81;28618;-82
2021/05/07 22:32:18;;;;;;;4.08;1.98;;;;;;;9.66;66.97;99009.91;4358507;81;28570;-82
2021/05/07 22:38:21;;;;;;;6.03;2.75;;;;;;;9.63;66.46;99016.03;4315030;80;28658;-82
2021/05/07 22:44:23;;;;;;;7.55;3.77;;;;;;;9.86;65.10;99028.47;4312030;83;28631;-81
2021/05/07 22:50:26;;;;;;;6.05;3.10;;;;;;;9.71;66.30;99031.01;4327342;81;28627;-82
2021/05/07 22:56:28;;;;;;;7.47;3.00;;;;;;;9.76;66.21;99041.08;4328854;81;28573;-82
2021/05/07 23:02:30;;;;;;;5.83;3.25;;;;;;;9.98;64.01;99050.83;4305380;81;28570;-82
2021/05/07 23:08:34;;;;;;;6.05;3.20;;;;;;;9.77;66.84;99060.16;4353176;81;28599;-81
2021/05/07 23:14:36;;;;;;;6.95;3.42;;;;;;;9.88;66.35;99058.06;4312585;81;28581;-80
2021/05/07 23:20:38;;;;;;;7.22;3.20;;;;;;;9.92;66.85;99068.37;4316053;80;28600;-80
2021/05/07 23:26:40;;;;;;;7.05;3.92;;;;;;;9.76;67.58;99066.58;4314742;81;28571;-80
2021/05/07 23:32:43;;;;;;;7.05;3.55;;;;;;;10.08;66.12;99072.30;4350172;81;28620;-78
2021/05/07 23:38:45;;;;;;;7.35;3.52;;;;;;;9.97;67.32;99073.87;4303088;83;28575;-79
2021/05/07 23:44:47;;;;;;;6.90;3.40;;;;;;;9.90;67.78;99080.67;4303645;83;28564;-81
2021/05/07 23:50:49;;;;;;;7.53;3.77;;;;;;;10.08;66.19;99084.39;4305439;83;28685;-80
2021/05/07 23:56:51;;;;;;;7.17;3.83;;;;;;;10.10;66.24;99084.97;4310865;83;28607;-80
